Time;durP1;ratioP1;P1;durP2;ratioP2;P2;SDS_P1;SDS_P2;PMS_P1;PMS_P2;Temp;Humidity;BMP_temperature;BMP_pressure;BME280_temperature;BME280_humidity;BME280_pressure;Samples;Min_cycle;Max_cycle;Signal;HPM_P1;HPM_P2
2021/12/03 00:00:13;;;;;;;5.60;3.57;;;1.80;99.90;;;;;;4969498;28;20629;-65
2021/12/03 00:02:40;;;;;;;5.17;4.37;;;1.80;99.90;;;;;;4969844;28;20452;-65
2021/12/03 00:05:09;;;;;;;6.30;4.23;;;1.80;99.90;;;;;;4969508;28;20830;-65
2021/12/03 00:07:37;;;;;;;6.27;4.47;;;1.80;99.90;;;;;;4969490;28;20460;-65
2021/12/03 00:10:06;;;;;;;10.40;4.20;;;1.80;99.90;;;;;;4969555;28;20510;-65
2021/12/03 00:12:34;;;;;;;7.87;5.10;;;1.80;99.90;;;;;;4969407;28;20480;-65
2021/12/03 00:15:00;;;;;;;7.80;5.10;;;1.80;99.90;;;;;;4969576;28;20448;-66
2021/12/03 00:17:29;;;;;;;6.80;5.27;;;1.90;99.90;;;;;;4969100;28;20447;-65
2021/12/03 00:19:55;;;;;;;7.90;5.10;;;1.80;99.90;;;;;;4969164;28;20475;-66
2021/12/03 00:22:22;;;;;;;7.37;4.63;;;1.80;99.90;;;;;;4969812;28;20462;-65
2021/12/03 00:24:49;;;;;;;9.47;5.53;;;1.80;99.90;;;;;;4969361;28;20452;-66
2021/12/03 00:27:16;;;;;;;9.60;5.60;;;1.90;99.90;;;;;;4969286;28;20479;-65
2021/12/03 00:29:44;;;;;;;10.50;5.50;;;1.80;99.90;;;;;;4969345;28;21029;-65
2021/12/03 00:32:11;;;;;;;8.20;5.50;;;1.90;99.90;;;;;;4969413;28;20448;-66
2021/12/03 00:34:39;;;;;;;8.73;5.13;;;1.80;99.90;;;;;;4969898;28;20455;-65
2021/12/03 00:37:06;;;;;;;6.70;5.40;;;1.90;99.90;;;;;;4969218;28;20452;-65
2021/12/03 00:39:32;;;;;;;8.37;5.47;;;1.80;99.90;;;;;;4969652;28;20470;-65
2021/12/03 00:42:01;;;;;;;6.03;4.63;;;1.70;99.90;;;;;;4969880;28;20845;-66
2021/12/03 00:44:30;;;;;;;7.53;5.33;;;1.80;99.90;;;;;;4969582;28;20455;-65
2021/12/03 00:46:58;;;;;;;12.13;6.67;;;1.70;99.90;;;;;;4969406;28;20450;-65
2021/12/03 00:49:26;;;;;;;9.63;6.07;;;1.80;99.90;;;;;;4969177;28;20495;-65
2021/12/03 00:51:55;;;;;;;9.47;6.37;;;1.80;99.90;;;;;;4969521;28;21041;-66
2021/12/03 00:54:21;;;;;;;7.97;5.57;;;1.90;99.90;;;;;;4970109;28;20462;-66
2021/12/03 00:56:48;;;;;;;6.87;4.90;;;1.90;99.90;;;;;;4971141;28;20440;-65
2021/12/03 00:59:15;;;;;;;9.53;6.10;;;1.90;99.90;;;;;;4969728;28;20464;-66
2021/12/03 01:01:42;;;;;;;9.53;5.70;;;2.00;99.90;;;;;;4972423;28;20445;-65
2021/12/03 01:04:09;;;;;;;7.90;5.53;;;2.00;99.90;;;;;;4969238;28;20440;-66
2021/12/03 01:06:36;;;;;;;7.73;5.30;;;2.00;99.90;;;;;;4968606;28;20448;-65
2021/12/03 01:09:05;;;;;;;8.83;5.73;;;2.10;99.90;;;;;;4969076;28;20483;-65
2021/12/03 01:11:32;;;;;;;11.40;5.90;;;2.10;99.90;;;;;;4968790;28;20459;-65
2021/12/03 01:14:01;;;;;;;9.17;6.23;;;2.10;99.90;;;;;;4969121;28;20467;-66
2021/12/03 01:16:28;;;;;;;8.47;6.00;;;2.10;99.90;;;;;;4968519;28;20990;-66
2021/12/03 01:18:56;;;;;;;8.40;5.80;;;2.10;99.90;;;;;;4968850;28;20472;-65
2021/12/03 01:21:23;;;;;;;10.47;6.43;;;2.10;99.90;;;;;;4968780;28;20456;-65
2021/12/03 01:23:51;;;;;;;8.43;5.63;;;2.20;99.90;;;;;;4968516;28;20456;-65
2021/12/03 01:26:20;;;;;;;10.33;6.57;;;2.20;99.90;;;;;;4971992;28;21169;-63
2021/12/03 01:28:48;;;;;;;8.70;6.07;;;2.20;99.90;;;;;;4972550;28;20484;-65
2021/12/03 01:31:16;;;;;;;7.00;5.93;;;2.20;99.90;;;;;;4972597;28;20460;-65
2021/12/03 01:33:46;;;;;;;11.10;5.80;;;2.20;99.90;;;;;;4972536;28;20455;-65
2021/12/03 01:36:14;;;;;;;8.90;6.53;;;2.10;99.90;;;;;;4972791;28;20446;-65
2021/12/03 01:38:41;;;;;;;12.20;6.13;;;2.10;99.90;;;;;;4972052;28;20893;-65
2021/12/03 01:41:08;;;;;;;9.10;5.80;;;2.10;99.90;;;;;;4973032;28;20453;-65
2021/12/03 01:43:37;;;;;;;6.97;5.40;;;2.10;99.90;;;;;;4972397;28;21058;-65
2021/12/03 01:46:06;;;;;;;9.10;6.27;;;2.10;99.90;;;;;;4972284;28;20486;-65
2021/12/03 01:48:34;;;;;;;10.30;6.83;;;2.00;99.90;;;;;;4971704;28;20882;-65
2021/12/03 01:51:01;;;;;;;12.43;6.57;;;2.00;99.90;;;;;;4972209;28;20981;-66
2021/12/03 01:53:31;;;;;;;8.23;5.80;;;1.90;99.90;;;;;;4972122;28;20553;-65
2021/12/03 01:56:01;;;;;;;8.90;5.80;;;1.80;99.90;;;;;;4972563;28;20547;-65
2021/12/03 01:58:28;;;;;;;11.90;6.40;;;1.80;99.90;;;;;;4972086;28;20459;-65
2021/12/03 02:00:58;;;;;;;7.90;6.60;;;1.80;99.90;;;;;;4972162;28;21108;-66
2021/12/03 02:03:28;;;;;;;7.20;5.37;;;1.80;99.90;;;;;;4971785;28;20824;-66
2021/12/03 02:05:56;;;;;;;7.57;6.37;;;1.70;99.90;;;;;;4972146;28;20883;-66
2021/12/03 02:08:23;;;;;;;8.67;6.50;;;1.70;99.90;;;;;;4971499;28;20458;-66
2021/12/03 02:10:51;;;;;;;10.10;6.40;;;1.70;99.90;;;;;;4972250;28;20444;-65
2021/12/03 02:13:18;;;;;;;11.77;6.67;;;1.70;99.90;;;;;;4971994;28;20440;-65
2021/12/03 02:15:46;;;;;;;10.50;6.60;;;1.60;99.90;;;;;;4971815;28;20495;-66
2021/12/03 02:18:16;;;;;;;14.60;7.67;;;1.60;99.90;;;;;;4971603;28;20433;-65
2021/12/03 02:20:45;;;;;;;10.57;7.00;;;1.60;99.90;;;;;;4972016;28;20444;-65
2021/12/03 02:23:12;;;;;;;9.80;6.70;;;1.60;99.90;;;;;;4972059;28;20447;-65
2021/12/03 02:25:39;;;;;;;8.77;6.77;;;1.50;99.90;;;;;;4971969;28;20484;-65
2021/12/03 02:28:06;;;;;;;9.73;7.07;;;1.50;99.90;;;;;;4971463;28;20531;-65
2021/12/03 02:30:33;;;;;;;10.93;6.97;;;1.60;99.90;;;;;;4971548;28;20477;-67
2021/12/03 02:33:01;;;;;;;15.47;7.10;;;1.60;99.90;;;;;;4972052;28;20435;-65
2021/12/03 02:35:27;;;;;;;10.70;6.90;;;1.50;99.90;;;;;;4971550;28;20449;-66
2021/12/03 02:37:56;;;;;;;9.77;7.43;;;1.50;99.90;;;;;;4971603;28;20440;-65
2021/12/03 02:40:24;;;;;;;9.57;6.60;;;1.50;99.90;;;;;;4971462;28;20460;-66
2021/12/03 02:42:51;;;;;;;12.03;7.70;;;1.50;99.90;;;;;;4971726;28;20863;-71
2021/12/03 02:45:19;;;;;;;12.90;6.77;;;1.40;99.90;;;;;;4971459;28;20516;-66
2021/12/03 02:47:47;;;;;;;7.93;6.00;;;1.40;99.90;;;;;;4971066;28;20922;-65
2021/12/03 02:50:15;;;;;;;10.80;8.73;;;1.40;99.90;;;;;;4971013;28;20489;-66
2021/12/03 02:52:43;;;;;;;9.83;7.00;;;1.40;99.90;;;;;;4971683;28;20451;-65
2021/12/03 02:55:12;;;;;;;12.37;8.20;;;1.40;99.90;;;;;;4971134;28;20444;-65
2021/12/03 02:57:40;;;;;;;10.30;7.70;;;1.30;99.90;;;;;;4971116;28;20443;-65
2021/12/03 03:00:10;;;;;;;11.27;7.80;;;1.30;99.90;;;;;;4970929;28;20801;-65
2021/12/03 03:02:36;;;;;;;9.80;7.60;;;1.20;99.90;;;;;;4971373;28;20443;-65
2021/12/03 03:05:04;;;;;;;12.67;8.53;;;1.10;99.90;;;;;;4971393;28;20445;-65
2021/12/03 03:07:31;;;;;;;8.90;6.90;;;1.10;99.90;;;;;;4970681;28;20448;-66
2021/12/03 03:09:58;;;;;;;10.00;7.20;;;1.10;99.90;;;;;;4970736;28;20563;-65
2021/12/03 03:12:27;;;;;;;12.77;8.50;;;1.00;99.90;;;;;;4970812;28;20542;-65
2021/12/03 03:14:56;;;;;;;12.00;8.33;;;1.00;99.90;;;;;;4971347;28;20446;-66
2021/12/03 03:17:24;;;;;;;12.73;8.83;;;0.90;99.90;;;;;;4970435;28;20443;-66
2021/12/03 03:19:52;;;;;;;12.47;7.57;;;1.00;99.90;;;;;;4970591;28;20474;-65
2021/12/03 03:22:20;;;;;;;10.83;6.87;;;1.10;99.90;;;;;;4970727;28;20454;-66
2021/12/03 03:24:47;;;;;;;15.00;8.80;;;1.00;99.90;;;;;;4970936;28;20436;-65
2021/12/03 03:27:15;;;;;;;16.13;8.47;;;1.00;99.90;;;;;;4970504;28;20460;-66
2021/12/03 03:29:44;;;;;;;13.37;8.37;;;1.00;99.90;;;;;;4970535;28;20486;-65
2021/12/03 03:32:12;;;;;;;10.83;8.70;;;1.00;99.90;;;;;;4970445;28;20502;-65
2021/12/03 03:34:39;;;;;;;13.80;8.33;;;1.00;99.90;;;;;;4970759;28;20452;-66
2021/12/03 03:37:06;;;;;;;12.03;9.40;;;1.00;99.90;;;;;;4970401;28;20452;-66
2021/12/03 03:39:33;;;;;;;14.00;7.67;;;1.10;99.90;;;;;;4970297;28;20472;-65
2021/12/03 03:42:00;;;;;;;13.23;6.90;;;1.20;99.90;;;;;;4970408;28;20479;-66
2021/12/03 03:44:27;;;;;;;9.90;7.47;;;1.20;99.90;;;;;;4970575;28;20448;-65
2021/12/03 03:46:57;;;;;;;13.52;8.35;;;1.20;99.90;;;;;;4969620;28;20976;-65
2021/12/03 03:49:25;;;;;;;9.90;7.43;;;1.30;99.90;;;;;;4969846;28;20740;-65
2021/12/03 03:51:53;;;;;;;12.80;8.23;;;1.30;99.90;;;;;;4969426;28;20448;-65
2021/12/03 03:54:20;;;;;;;10.97;7.83;;;1.40;99.90;;;;;;4969616;28;20455;-66
2021/12/03 03:56:47;;;;;;;9.70;8.17;;;1.40;99.90;;;;;;4968982;28;20834;-65
2021/12/03 03:59:17;;;;;;;10.80;7.27;;;1.40;99.90;;;;;;4969038;28;20464;-70
2021/12/03 04:01:44;;;;;;;14.07;8.20;;;1.40;99.90;;;;;;4969128;28;20944;-65
2021/12/03 04:04:13;;;;;;;13.63;8.63;;;1.40;99.90;;;;;;4968972;28;20874;-66
2021/12/03 04:06:40;;;;;;;11.70;7.37;;;1.40;99.90;;;;;;4968582;28;20209;-65
2021/12/03 04:09:08;;;;;;;12.47;8.60;;;1.40;99.90;;;;;;4968883;28;20476;-65
2021/12/03 04:11:35;;;;;;;12.37;8.53;;;1.30;99.90;;;;;;4968962;28;20452;-65
2021/12/03 04:14:02;;;;;;;11.13;8.57;;;1.30;99.90;;;;;;4969061;28;20456;-65
2021/12/03 04:16:31;;;;;;;10.73;7.80;;;1.30;99.90;;;;;;4968670;28;20452;-65
2021/12/03 04:18:59;;;;;;;11.47;8.30;;;1.30;99.90;;;;;;4968597;28;20472;-66
2021/12/03 04:21:28;;;;;;;13.83;9.30;;;1.40;99.90;;;;;;4968873;28;20451;-65
2021/12/03 04:23:55;;;;;;;12.50;8.27;;;1.40;99.90;;;;;;4968859;28;20452;-66
2021/12/03 04:26:22;;;;;;;11.00;8.07;;;1.50;99.90;;;;;;4968914;28;20456;-66
2021/12/03 04:28:49;;;;;;;12.00;8.80;;;1.60;99.90;;;;;;4968732;28;20475;-65
2021/12/03 04:31:16;;;;;;;12.33;8.80;;;1.50;99.90;;;;;;4968727;28;20560;-65
2021/12/03 04:33:42;;;;;;;9.47;7.93;;;1.60;99.90;;;;;;4968505;28;20455;-65
2021/12/03 04:36:10;;;;;;;11.47;8.20;;;1.60;99.90;;;;;;4968519;28;20463;-64
2021/12/03 04:38:38;;;;;;;11.03;8.63;;;1.70;99.90;;;;;;4968023;28;20464;-65
2021/12/03 04:41:05;;;;;;;13.17;8.27;;;1.70;99.90;;;;;;4969003;28;20455;-66
2021/12/03 04:43:32;;;;;;;11.00;7.83;;;1.80;99.90;;;;;;4968319;28;20444;-65
2021/12/03 04:45:59;;;;;;;10.40;8.13;;;1.80;99.90;;;;;;4968798;28;20812;-66
2021/12/03 04:48:26;;;;;;;12.10;8.13;;;1.80;99.90;;;;;;4968472;28;20462;-65
2021/12/03 04:50:53;;;;;;;10.37;8.00;;;1.80;99.90;;;;;;4932304;28;1073027;-65
2021/12/03 04:53:20;;;;;;;11.87;7.90;;;1.80;99.90;;;;;;4969549;28;20452;-66
2021/12/03 04:55:50;;;;;;;11.13;7.57;;;1.80;99.90;;;;;;4969431;28;20435;-66
2021/12/03 04:58:17;;;;;;;9.17;6.83;;;1.90;99.90;;;;;;4969080;28;20446;-65
2021/12/03 05:00:48;;;;;;;11.63;7.97;;;1.90;99.90;;;;;;4966704;28;20454;-65
2021/12/03 05:03:15;;;;;;;10.87;7.20;;;1.90;99.90;;;;;;4969321;28;20444;-65
2021/12/03 05:05:45;;;;;;;13.93;8.37;;;2.00;99.90;;;;;;4969017;28;20877;-66
2021/12/03 05:08:12;;;;;;;11.57;7.00;;;2.00;99.90;;;;;;4968647;28;20477;-65
2021/12/03 05:10:40;;;;;;;7.93;6.70;;;2.00;99.90;;;;;;4968998;28;20486;-66
2021/12/03 05:13:11;;;;;;;9.83;7.73;;;2.00;99.90;;;;;;4969050;28;20436;-65
2021/12/03 05:15:39;;;;;;;8.70;7.30;;;2.00;99.90;;;;;;4969184;28;20520;-65
2021/12/03 05:18:07;;;;;;;9.77;7.20;;;2.00;99.90;;;;;;4968861;28;20452;-65
2021/12/03 05:20:35;;;;;;;8.75;6.68;;;2.00;99.90;;;;;;4968677;28;20444;-65
2021/12/03 05:23:02;;;;;;;10.10;7.80;;;2.00;99.90;;;;;;4968920;28;20615;-65
2021/12/03 05:25:29;;;;;;;9.10;7.47;;;2.00;99.90;;;;;;4968893;28;20489;-66
2021/12/03 05:27:57;;;;;;;10.87;7.60;;;1.90;99.90;;;;;;4968637;28;20470;-65
2021/12/03 05:30:25;;;;;;;9.20;7.47;;;1.90;99.90;;;;;;4969170;28;20787;-66
2021/12/03 05:32:52;;;;;;;9.00;7.30;;;1.90;99.90;;;;;;4969973;28;20448;-66
2021/12/03 05:35:20;;;;;;;9.80;7.40;;;2.00;99.90;;;;;;4970162;28;20447;-66
2021/12/03 05:37:46;;;;;;;11.47;8.67;;;2.00;99.90;;;;;;4969881;28;20456;-68
2021/12/03 05:40:16;;;;;;;9.40;7.13;;;1.90;99.90;;;;;;4970022;28;20608;-66
2021/12/03 05:42:44;;;;;;;10.13;7.67;;;2.00;99.90;;;;;;4969274;28;20490;-65
2021/12/03 05:45:14;;;;;;;10.13;8.13;;;2.00;99.90;;;;;;4969111;28;20459;-65
2021/12/03 05:47:42;;;;;;;11.90;8.63;;;2.00;99.90;;;;;;4968257;28;20448;-66
2021/12/03 05:50:11;;;;;;;10.60;7.80;;;2.00;99.90;;;;;;4968153;28;20583;-66
2021/12/03 05:52:38;;;;;;;9.63;7.43;;;2.00;99.90;;;;;;4964034;28;20456;-64
2021/12/03 05:55:07;;;;;;;11.87;7.83;;;2.00;99.90;;;;;;4966965;28;20455;-64
2021/12/03 05:57:34;;;;;;;10.20;7.30;;;2.00;99.90;;;;;;4965244;28;20482;-65
2021/12/03 06:00:01;;;;;;;9.53;6.90;;;2.00;99.90;;;;;;4967324;28;20463;-64
2021/12/03 06:02:28;;;;;;;11.03;6.90;;;2.00;99.90;;;;;;4967711;28;20444;-65
2021/12/03 06:04:56;;;;;;;9.30;7.93;;;2.00;99.90;;;;;;4968375;28;20454;-66
2021/12/03 06:07:23;;;;;;;9.73;6.83;;;2.00;99.90;;;;;;4967895;28;20439;-67
2021/12/03 06:09:50;;;;;;;12.67;7.50;;;1.90;99.90;;;;;;4968111;28;20486;-66
2021/12/03 06:12:17;;;;;;;9.13;6.83;;;2.00;99.90;;;;;;4970593;28;20450;-67
2021/12/03 06:14:43;;;;;;;8.10;7.00;;;1.90;99.90;;;;;;4970952;28;20438;-66
2021/12/03 06:17:12;;;;;;;9.53;6.67;;;1.90;99.90;;;;;;4969873;28;20868;-66
2021/12/03 06:19:40;;;;;;;9.97;7.80;;;1.80;99.90;;;;;;4970202;28;20469;-65
2021/12/03 06:22:09;;;;;;;10.23;7.70;;;1.80;99.90;;;;;;4969874;28;20459;-66
2021/12/03 06:24:36;;;;;;;9.97;7.37;;;1.80;99.90;;;;;;4969811;28;20961;-66
2021/12/03 06:27:03;;;;;;;8.03;6.80;;;1.70;99.90;;;;;;4969371;28;20821;-66
2021/12/03 06:29:30;;;;;;;12.23;7.70;;;1.70;99.90;;;;;;4970408;28;20567;-66
2021/12/03 06:31:57;;;;;;;12.70;7.27;;;1.70;99.90;;;;;;4971100;28;20458;-66
2021/12/03 06:34:24;;;;;;;11.07;7.60;;;1.70;99.90;;;;;;4971028;28;20479;-66
2021/12/03 06:36:51;;;;;;;9.50;6.93;;;1.60;99.90;;;;;;4970675;28;20962;-67
2021/12/03 06:39:19;;;;;;;11.80;7.30;;;1.50;99.90;;;;;;4971180;28;20554;-66
2021/12/03 06:41:46;;;;;;;10.10;7.50;;;1.50;99.90;;;;;;4971189;28;20947;-67
2021/12/03 06:44:13;;;;;;;11.57;7.53;;;1.40;99.90;;;;;;4971395;28;20523;-67
2021/12/03 06:46:40;;;;;;;9.33;7.33;;;1.30;99.90;;;;;;4971515;28;20991;-66
2021/12/03 06:49:07;;;;;;;8.40;7.20;;;1.30;99.90;;;;;;4970747;28;20568;-66
2021/12/03 06:51:40;;;;;;;10.57;7.63;;;1.20;99.90;;;;;;4971018;28;20929;-67
2021/12/03 06:54:08;;;;;;;10.07;8.20;;;1.10;99.90;;;;;;4971097;28;20455;-67
2021/12/03 06:56:47;;;;;;;8.23;6.77;;;1.10;99.90;;;;;;4970618;28;20455;-67
2021/12/03 06:59:15;;;;;;;8.50;6.77;;;1.10;99.90;;;;;;4970859;28;20499;-67
2021/12/03 07:01:42;;;;;;;7.83;4.70;;;1.10;99.90;;;;;;4970406;28;20534;-66
2021/12/03 07:04:09;;;;;;;6.57;5.67;;;1.30;99.90;;;;;;4970538;28;20535;-66
2021/12/03 07:06:36;;;;;;;8.27;4.97;;;1.40;99.90;;;;;;4962757;28;20458;-65
2021/12/03 07:09:04;;;;;;;5.70;4.03;;;1.50;99.90;;;;;;4969221;28;20586;-64
2021/12/03 07:11:31;;;;;;;5.30;4.27;;;1.50;99.90;;;;;;4969353;28;20889;-63
2021/12/03 07:14:00;;;;;;;6.90;4.77;;;1.60;99.90;;;;;;4969250;28;20448;-65
2021/12/03 07:16:27;;;;;;;7.77;5.40;;;1.60;99.90;;;;;;4969168;28;20448;-65
2021/12/03 07:18:54;;;;;;;8.03;4.70;;;1.60;99.90;;;;;;4969286;28;20559;-65
2021/12/03 07:21:22;;;;;;;7.73;4.30;;;1.60;99.90;;;;;;4969161;28;20486;-65
2021/12/03 07:23:50;;;;;;;6.70;3.90;;;1.70;99.90;;;;;;4968234;28;20459;-64
2021/12/03 07:26:17;;;;;;;6.60;4.40;;;1.80;99.90;;;;;;4968963;28;20456;-65
2021/12/03 07:28:44;;;;;;;4.70;4.00;;;1.80;99.90;;;;;;4968655;28;20465;-65
2021/12/03 07:31:13;;;;;;;9.00;4.30;;;1.80;99.90;;;;;;4969193;28;20479;-65
2021/12/03 07:33:40;;;;;;;5.60;4.17;;;1.70;99.90;;;;;;4969233;28;20472;-66
2021/12/03 07:36:07;;;;;;;6.90;4.67;;;1.60;99.90;;;;;;4969776;28;20576;-65
2021/12/03 07:38:35;;;;;;;5.43;4.67;;;1.40;99.90;;;;;;4968409;28;20551;-66
2021/12/03 07:41:03;;;;;;;7.77;4.93;;;1.30;99.90;;;;;;4969672;28;20494;-65
2021/12/03 07:43:31;;;;;;;6.90;5.20;;;1.20;99.90;;;;;;4969924;28;20610;-65
2021/12/03 07:45:58;;;;;;;6.00;4.80;;;1.20;99.90;;;;;;4969635;28;20432;-65
2021/12/03 07:48:26;;;;;;;8.00;5.53;;;1.10;99.90;;;;;;4969627;28;20470;-66
2021/12/03 07:50:55;;;;;;;6.60;5.30;;;1.10;99.90;;;;;;4969585;28;21024;-66
2021/12/03 07:53:22;;;;;;;7.60;5.93;;;1.20;99.90;;;;;;4969687;28;20513;-65
2021/12/03 07:55:51;;;;;;;14.10;6.17;;;1.40;99.90;;;;;;4969401;28;20455;-66
2021/12/03 07:58:19;;;;;;;9.80;5.00;;;1.50;99.90;;;;;;4969069;28;20815;-66
2021/12/03 08:00:47;;;;;;;8.17;5.97;;;1.50;99.90;;;;;;4969762;28;20856;-65
2021/12/03 08:03:14;;;;;;;8.60;5.40;;;1.50;99.90;;;;;;4969358;28;20465;-66
2021/12/03 08:05:43;;;;;;;9.67;5.20;;;1.60;99.90;;;;;;4969244;28;21025;-65
2021/12/03 08:08:09;;;;;;;6.23;5.53;;;1.70;99.90;;;;;;4968978;28;20457;-66
2021/12/03 08:10:37;;;;;;;6.17;5.10;;;1.90;99.90;;;;;;4969218;28;20476;-65
2021/12/03 08:13:04;;;;;;;7.80;4.83;;;2.00;99.90;;;;;;4969407;28;20492;-66
2021/12/03 08:15:36;;;;;;;6.97;4.60;;;2.20;99.90;;;;;;4969328;28;21049;-65
2021/12/03 08:18:04;;;;;;;6.10;4.20;;;2.40;99.90;;;;;;4968952;28;20735;-66
2021/12/03 08:20:31;;;;;;;5.60;4.07;;;2.40;99.90;;;;;;4968922;28;20460;-66
2021/12/03 08:23:00;;;;;;;7.53;4.87;;;2.60;99.90;;;;;;4968847;28;21033;-66
2021/12/03 08:25:27;;;;;;;7.30;4.50;;;2.60;99.90;;;;;;4969274;28;20451;-66
2021/12/03 08:27:55;;;;;;;7.23;5.77;;;2.80;99.90;;;;;;4969215;28;20476;-66
2021/12/03 08:30:22;;;;;;;5.27;4.20;;;3.00;99.90;;;;;;4968960;28;20469;-66
2021/12/03 08:32:49;;;;;;;6.97;5.10;;;3.20;99.90;;;;;;4968929;28;20446;-66
2021/12/03 08:35:16;;;;;;;6.43;4.50;;;3.30;99.90;;;;;;4968750;28;20657;-65
2021/12/03 08:37:46;;;;;;;5.97;4.33;;;3.20;99.90;;;;;;4968424;28;20460;-66
2021/12/03 08:40:15;;;;;;;5.40;3.93;;;3.10;99.90;;;;;;4969008;28;20454;-66
2021/12/03 08:42:42;;;;;;;5.00;4.23;;;3.20;99.90;;;;;;4968750;28;21079;-66
2021/12/03 08:45:09;;;;;;;7.80;4.40;;;3.20;99.90;;;;;;4968811;28;20493;-66
2021/12/03 08:47:39;;;;;;;6.10;4.20;;;3.20;99.90;;;;;;4968488;28;20880;-66
2021/12/03 08:50:11;;;;;;;8.10;4.90;;;3.20;99.90;;;;;;4968780;28;20568;-66
2021/12/03 08:55:30;;;;;;;4.90;3.90;;;3.30;99.90;;;;;;4930794;28;20766;-66
2021/12/03 08:57:57;;;;;;;6.50;3.93;;;3.30;99.90;;;;;;4968249;28;20535;-65
2021/12/03 09:00:24;;;;;;;4.87;3.83;;;3.30;99.90;;;;;;4968392;28;20562;-65
2021/12/03 09:02:51;;;;;;;4.30;3.30;;;3.30;99.90;;;;;;4968859;28;20537;-65
2021/12/03 09:05:18;;;;;;;4.10;3.10;;;3.50;99.90;;;;;;4968602;28;20527;-65
2021/12/03 09:07:45;;;;;;;4.77;3.70;;;3.40;99.90;;;;;;4968111;28;20487;-65
2021/12/03 09:10:15;;;;;;;4.93;3.00;;;3.50;99.90;;;;;;4968401;28;20521;-65
2021/12/03 09:12:44;;;;;;;4.13;2.73;;;3.50;99.90;;;;;;4968333;28;20484;-65
2021/12/03 09:15:13;;;;;;;4.20;2.97;;;3.40;99.90;;;;;;4968557;28;21045;-65
2021/12/03 09:17:52;;;;;;;3.60;2.90;;;3.30;99.90;;;;;;4968444;28;20883;-66
2021/12/03 09:20:41;;;;;;;5.07;3.40;;;3.20;99.90;;;;;;4968784;28;20831;-65
2021/12/03 09:23:12;;;;;;;4.37;2.90;;;3.20;99.90;;;;;;4968640;28;20439;-65
2021/12/03 09:25:45;;;;;;;5.90;3.10;;;3.10;99.90;;;;;;4968917;28;20979;-65
2021/12/03 09:28:14;;;;;;;4.87;3.20;;;3.10;99.90;;;;;;4968406;28;20858;-65
2021/12/03 09:30:43;;;;;;;4.30;2.47;;;3.10;99.90;;;;;;4968448;28;20452;-65
2021/12/03 09:33:13;;;;;;;3.90;2.90;;;3.10;99.90;;;;;;4968488;28;20821;-65
2021/12/03 09:35:45;;;;;;;4.83;2.53;;;3.10;99.90;;;;;;4968730;28;20523;-65
2021/12/03 09:38:12;;;;;;;4.20;2.57;;;3.20;99.90;;;;;;4968342;28;20503;-66
2021/12/03 09:40:41;;;;;;;5.10;3.20;;;3.10;99.90;;;;;;4968627;28;20447;-65
2021/12/03 09:43:08;;;;;;;9.73;3.50;;;3.10;99.90;;;;;;4969072;28;20443;-65
2021/12/03 09:45:37;;;;;;;5.73;2.87;;;3.00;99.90;;;;;;4969740;28;20508;-65
2021/12/03 09:48:15;;;;;;;3.90;2.70;;;3.00;99.90;;;;;;4972124;28;20484;-65
2021/12/03 09:50:42;;;;;;;4.60;2.70;;;3.10;99.90;;;;;;4972162;28;20827;-65
2021/12/03 09:53:24;;;;;;;3.80;2.33;;;3.30;99.90;;;;;;4972150;28;20956;-66
2021/12/03 09:55:51;;;;;;;5.37;2.73;;;3.50;99.90;;;;;;4972209;28;20812;-65
2021/12/03 09:58:32;;;;;;;3.63;2.50;;;3.70;99.90;;;;;;4971654;28;20468;-65
2021/12/03 10:01:05;;;;;;;3.60;2.60;;;4.00;99.90;;;;;;4972016;28;20815;-65
2021/12/03 10:03:43;;;;;;;4.03;2.67;;;4.30;99.90;;;;;;4971947;28;20996;-65
2021/12/03 10:12:31;;;;;;;3.90;2.30;;;4.30;99.90;;;;;;4972537;28;20832;-65
2021/12/03 10:15:06;;;;;;;5.53;3.27;;;4.10;99.90;;;;;;4972826;28;20857;-65
2021/12/03 10:17:49;;;;;;;3.80;2.60;;;3.90;99.90;;;;;;4972064;28;20816;-65
2021/12/03 10:20:25;;;;;;;4.43;2.40;;;3.80;99.90;;;;;;4971245;28;20511;-65
2021/12/03 10:34:56;;;;;;;5.47;3.20;;;4.00;99.90;;;;;;4970786;28;20949;-65
2021/12/03 10:37:56;;;;;;;4.70;3.00;;;4.60;99.90;;;;;;4970965;28;20458;-65
2021/12/03 10:40:52;;;;;;;5.07;2.70;;;5.00;99.90;;;;;;4971100;28;20469;-65
2021/12/03 10:43:36;;;;;;;3.37;2.47;;;5.00;99.90;;;;;;4970855;28;20445;-65
2021/12/03 10:46:23;;;;;;;5.23;3.20;;;4.80;99.90;;;;;;4970899;28;20446;-65
2021/12/03 10:48:56;;;;;;;4.00;2.77;;;4.50;99.90;;;;;;4970753;28;20475;-65
2021/12/03 10:54:34;;;;;;;3.20;2.30;;;4.20;99.90;;;;;;4960134;28;20434;-65
2021/12/03 11:03:20;;;;;;;4.07;3.23;;;4.10;99.90;;;;;;4970609;28;20423;-65
2021/12/03 11:17:34;;;;;;;4.70;3.20;;;4.20;99.90;;;;;;4970457;28;20424;-66
2021/12/03 11:37:16;;;;;;;3.73;3.40;;;5.10;99.90;;;;;;4969596;28;21004;-66
2021/12/03 13:21:26;;;;;;;4.00;3.60;;;4.60;99.90;;;;;;4947405;28;20445;-66
2021/12/03 13:27:31;;;;;;;3.33;2.07;;;5.00;99.90;;;;;;4972569;28;20432;-65
2021/12/03 14:38:15;;;;;;;6.10;1.80;;;4.20;99.90;;;;;;5084974;28;21109;-64
2021/12/03 14:41:05;;;;;;;5.23;2.10;;;4.10;99.90;;;;;;5104460;28;20950;-65
2021/12/03 14:43:43;;;;;;;6.07;1.93;;;4.10;99.90;;;;;;5104686;28;20441;-66
2021/12/03 14:51:55;;;;;;;3.00;1.90;;;4.10;99.90;;;;;;5100032;28;20946;-66
2021/12/03 14:54:31;;;;;;;2.43;1.70;;;4.00;99.90;;;;;;5102574;28;20558;-66
2021/12/03 14:57:17;;;;;;;2.67;1.63;;;4.00;99.90;;;;;;5102846;28;20444;-66
2021/12/03 15:00:05;;;;;;;3.67;2.00;;;3.90;99.90;;;;;;5103240;28;20485;-67
2021/12/03 15:02:49;;;;;;;5.10;2.60;;;3.90;99.90;;;;;;5103077;28;20464;-65
2021/12/03 15:05:28;;;;;;;5.23;2.50;;;3.90;99.90;;;;;;5101823;28;20488;-66
2021/12/03 15:07:55;;;;;;;3.80;2.33;;;3.80;99.90;;;;;;5102336;28;21060;-64
2021/12/03 15:10:32;;;;;;;10.23;1.73;;;3.80;99.90;;;;;;5099699;28;20499;-63
2021/12/03 15:24:35;;;;;;;4.37;2.30;;;3.20;99.90;;;;;;5083997;27;20532;-64
2021/12/03 15:32:40;;;;;;;6.80;2.80;;;2.90;99.90;;;;;;5084209;28;20430;-66
2021/12/03 15:35:12;;;;;;;3.83;2.80;;;2.80;99.90;;;;;;5083684;28;20441;-65
2021/12/03 15:40:41;;;;;;;4.33;2.93;;;2.80;99.90;;;;;;5073572;28;20437;-65
2021/12/03 15:57:13;;;;;;;5.77;3.20;;;2.30;99.90;;;;;;5041283;28;20507;-65
2021/12/03 16:05:20;;;;;;;5.40;3.93;;;2.30;99.90;;;;;;5069527;28;20455;-67
2021/12/03 16:10:43;;;;;;;5.43;3.20;;;2.10;99.90;;;;;;5071677;28;20984;-65
2021/12/03 16:13:24;;;;;;;5.40;3.30;;;2.00;99.90;;;;;;5067039;28;20495;-65
2021/12/03 16:16:29;;;;;;;5.77;3.40;;;1.90;99.90;;;;;;5065967;28;20485;-64
2021/12/03 16:21:48;;;;;;;6.47;3.60;;;1.70;99.90;;;;;;5071978;28;20451;-65
2021/12/03 16:51:49;;;;;;;7.50;5.00;;;1.50;99.90;;;;;;5048294;28;20843;-63
2021/12/03 16:54:21;;;;;;;5.20;3.83;;;1.60;99.90;;;;;;5053768;28;20441;-66
2021/12/03 16:56:50;;;;;;;5.70;4.33;;;1.60;99.90;;;;;;5049669;28;20459;-66
2021/12/03 16:59:17;;;;;;;6.57;4.03;;;1.70;99.90;;;;;;5046625;28;20475;-66
2021/12/03 17:01:49;;;;;;;8.33;3.47;;;1.80;99.90;;;;;;5052963;28;21121;-65
2021/12/03 17:48:27;;;;;;;6.40;3.67;;;3.40;99.90;;;;;;5053808;28;20435;-65
2021/12/03 17:51:06;;;;;;;4.30;2.47;;;3.50;99.90;;;;;;5050074;28;20459;-65
2021/12/03 17:54:05;;;;;;;4.20;2.93;;;3.50;99.90;;;;;;5053424;28;20474;-65
2021/12/03 17:56:33;;;;;;;5.10;3.20;;;3.60;99.90;;;;;;5064823;28;20443;-66
2021/12/03 17:59:08;;;;;;;5.00;3.30;;;3.70;99.90;;;;;;5066075;28;20480;-66
2021/12/03 18:01:39;;;;;;;3.50;2.70;;;3.70;99.90;;;;;;5066665;28;20462;-66
2021/12/03 18:04:10;;;;;;;3.67;2.70;;;3.70;99.90;;;;;;5067234;28;20492;-66
2021/12/03 18:06:57;;;;;;;5.03;3.10;;;3.70;99.90;;;;;;5067745;28;20446;-65
2021/12/03 18:09:58;;;;;;;4.60;2.80;;;3.60;99.90;;;;;;5052361;28;20471;-66
2021/12/03 18:18:19;;;;;;;4.00;2.73;;;3.70;99.90;;;;;;5058221;28;20434;-66
2021/12/03 18:48:37;;;;;;;4.00;2.60;;;3.50;99.90;;;;;;5052273;28;20435;-66
2021/12/03 18:56:33;;;;;;;6.63;3.70;;;3.60;99.90;;;;;;5046903;28;20491;-67
2021/12/03 18:59:04;;;;;;;4.77;3.30;;;3.70;99.90;;;;;;5047875;28;20896;-67
2021/12/03 19:01:32;;;;;;;5.27;3.40;;;3.70;99.90;;;;;;5047414;28;20949;-66
2021/12/03 19:04:15;;;;;;;5.80;3.43;;;3.70;99.90;;;;;;5047953;28;21117;-66
2021/12/03 19:06:45;;;;;;;5.80;3.10;;;3.70;99.90;;;;;;5047510;28;21124;-66
2021/12/03 19:09:15;;;;;;;10.03;3.60;;;3.70;99.90;;;;;;5055701;28;20560;-67
2021/12/03 19:11:51;;;;;;;6.80;3.70;;;3.80;99.90;;;;;;5051069;28;20948;-65
2021/12/03 19:14:21;;;;;;;4.90;3.60;;;3.80;99.90;;;;;;5048802;28;20987;-65
2021/12/03 19:16:48;;;;;;;4.80;3.10;;;3.80;99.90;;;;;;5058939;28;20486;-66
2021/12/03 19:19:16;;;;;;;7.07;4.27;;;3.80;99.90;;;;;;5052527;28;20481;-66
2021/12/03 19:21:44;;;;;;;7.80;3.60;;;3.90;99.90;;;;;;5050483;28;20554;-66
2021/12/03 19:24:15;;;;;;;5.53;3.90;;;3.90;99.90;;;;;;5050793;28;21176;-61
2021/12/03 19:26:45;;;;;;;5.53;3.67;;;3.90;99.90;;;;;;5045383;28;20449;-65
2021/12/03 19:29:13;;;;;;;9.73;3.77;;;3.90;99.90;;;;;;5045097;28;20863;-67
2021/12/03 19:31:41;;;;;;;6.50;3.73;;;3.90;99.90;;;;;;5045821;28;20515;-64
2021/12/03 19:34:08;;;;;;;6.00;4.43;;;3.90;99.90;;;;;;5046338;28;20458;-65
2021/12/03 19:36:39;;;;;;;6.37;3.60;;;3.90;99.90;;;;;;5048390;28;21042;-65
2021/12/03 19:39:07;;;;;;;5.90;3.57;;;3.90;99.90;;;;;;5051885;28;20537;-65